createdAt,value
2023-02-08T00:03:36.272Z,16.35
2023-02-08T00:06:23.392Z,17.15
2023-02-08T00:09:10.516Z,16.27
2023-02-08T00:11:57.533Z,16.05
2023-02-08T00:14:44.703Z,17.30
2023-02-08T00:17:32.336Z,16.30
2023-02-08T00:20:19.624Z,16.05
2023-02-08T00:23:06.858Z,17.45
2023-02-08T00:25:54.013Z,17.90
2023-02-08T00:28:41.098Z,18.05
2023-02-08T00:31:29.556Z,19.92
2023-02-08T00:34:16.644Z,18.70
2023-02-08T00:37:03.731Z,20.67
2023-02-08T00:39:50.765Z,18.92
2023-02-08T00:42:37.879Z,17.73
2023-02-08T00:45:25.068Z,17.27
2023-02-08T00:48:12.156Z,17.45
2023-02-08T00:51:09.618Z,17.23
2023-02-08T00:53:56.661Z,18.70
2023-02-08T00:56:44.497Z,18.05
2023-02-08T00:59:31.578Z,16.77
2023-02-08T01:02:18.825Z,16.83
2023-02-08T01:05:06.613Z,17.98
2023-02-08T01:07:53.749Z,18.02
2023-02-08T01:10:41.627Z,17.50
2023-02-08T01:13:28.873Z,18.05
2023-02-08T01:16:20.711Z,18.23
2023-02-08T01:19:07.926Z,16.83
2023-02-08T01:21:55.163Z,16.25
2023-02-08T01:24:42.297Z,17.98
2023-02-08T01:27:29.343Z,17.92
2023-02-08T01:30:17.688Z,17.02
2023-02-08T01:33:04.782Z,16.52
2023-02-08T01:35:53.021Z,17.25
2023-02-08T01:38:40.195Z,16.67
2023-02-08T01:41:33.873Z,16.20
2023-02-08T01:45:06.048Z,15.95
2023-02-08T01:47:58.705Z,17.67
2023-02-08T01:51:20.621Z,18.05
2023-02-08T01:54:10.383Z,17.23
2023-02-08T01:56:57.674Z,17.55
2023-02-08T01:59:53.423Z,17.75
2023-02-08T02:02:41.958Z,17.73
2023-02-08T02:05:35.544Z,16.42
2023-02-08T02:08:22.762Z,17.88
2023-02-08T02:11:09.900Z,16.38
2023-02-08T02:13:58.391Z,16.15
2023-02-08T02:16:45.601Z,16.00
2023-02-08T02:20:08.110Z,16.75
2023-02-08T02:23:25.416Z,15.60
2023-02-08T02:26:40.106Z,17.45
2023-02-08T02:29:58.125Z,15.27
2023-02-08T02:32:55.636Z,17.10
2023-02-08T02:36:01.124Z,16.48
2023-02-08T02:39:15.740Z,17.05
2023-02-08T02:42:47.999Z,16.17
2023-02-08T02:46:19.922Z,16.42
2023-02-08T02:49:12.754Z,16.65
2023-02-08T02:52:06.141Z,17.30
2023-02-08T02:54:56.143Z,18.67
2023-02-08T02:57:47.185Z,18.05
2023-02-08T03:00:34.512Z,17.23
2023-02-08T03:03:25.362Z,17.63
2023-02-08T03:06:25.605Z,17.55
2023-02-08T03:12:12.175Z,17.98
2023-02-08T03:15:35.561Z,17.17
2023-02-08T03:18:52.556Z,18.95
2023-02-08T03:21:55.503Z,19.13
2023-02-08T03:25:03.396Z,17.90
2023-02-08T03:28:01.958Z,18.63
2023-02-08T03:31:18.947Z,17.60
2023-02-08T03:34:13.268Z,16.92
2023-02-08T03:37:10.306Z,16.70
2023-02-08T03:40:06.633Z,16.92
2023-02-08T03:42:57.040Z,16.88
2023-02-08T03:45:50.264Z,17.92
2023-02-08T03:48:40.862Z,15.70
2023-02-08T03:51:30.337Z,16.48
2023-02-08T03:54:24.492Z,16.80
2023-02-08T03:57:18.705Z,16.23
2023-02-08T04:00:14.621Z,16.42
2023-02-08T04:03:26.226Z,16.67
2023-02-08T04:06:13.505Z,17.38
2023-02-08T04:09:01.633Z,15.93
2023-02-08T04:11:48.733Z,17.65
2023-02-08T04:14:35.795Z,16.88
2023-02-08T04:17:22.868Z,17.98
2023-02-08T04:20:10.673Z,16.17
2023-02-08T04:22:57.781Z,17.27
2023-02-08T04:25:44.920Z,16.20
2023-02-08T04:28:32.009Z,16.33
2023-02-08T04:31:19.196Z,16.67
2023-02-08T04:34:06.364Z,15.63
2023-02-08T04:36:53.571Z,16.27
2023-02-08T04:39:40.622Z,15.88
2023-02-08T04:42:28.093Z,15.27
2023-02-08T04:45:15.253Z,15.30
2023-02-08T04:48:02.453Z,14.88
2023-02-08T04:50:49.547Z,15.55
2023-02-08T04:53:36.622Z,16.13
2023-02-08T04:56:23.762Z,14.75
2023-02-08T04:59:10.861Z,14.52
2023-02-08T05:01:58.048Z,13.98
2023-02-08T05:04:45.237Z,14.80
2023-02-08T05:07:33.382Z,14.90
2023-02-08T05:10:20.557Z,15.65
2023-02-08T05:13:07.795Z,14.82
2023-02-08T05:15:54.887Z,16.58
2023-02-08T05:18:42.128Z,15.82
2023-02-08T05:21:30.420Z,16.90
2023-02-08T05:24:17.645Z,14.85
2023-02-08T05:27:04.702Z,17.90
2023-02-08T05:29:51.814Z,16.90
2023-02-08T05:32:38.928Z,17.17
2023-02-08T05:35:25.970Z,17.50
2023-02-08T05:38:13.009Z,17.90
2023-02-08T05:41:00.074Z,17.50
2023-02-08T05:43:47.146Z,17.48
2023-02-08T05:46:35.463Z,18.08
2023-02-08T05:49:24.310Z,17.25
2023-02-08T05:52:11.500Z,18.45
2023-02-08T05:54:58.509Z,18.42
2023-02-08T05:57:45.568Z,17.55
2023-02-08T06:00:32.619Z,16.33
2023-02-08T06:03:19.739Z,17.33
2023-02-08T06:06:07.968Z,16.05
2023-02-08T06:08:55.027Z,15.93
2023-02-08T06:11:42.066Z,15.75
2023-02-08T06:14:29.091Z,16.33
2023-02-08T06:17:16.132Z,14.32
2023-02-08T06:20:03.434Z,17.30
2023-02-08T06:22:50.647Z,16.55
2023-02-08T06:25:37.904Z,15.82
2023-02-08T06:28:25.093Z,16.85
2023-02-08T06:31:12.217Z,15.52
2023-02-08T06:33:59.273Z,14.40
2023-02-08T06:36:46.508Z,15.40
2023-02-08T06:39:33.623Z,16.10
2023-02-08T06:42:20.675Z,17.02
2023-02-08T06:45:11.022Z,16.13
2023-02-08T06:47:59.314Z,17.08
2023-02-08T06:50:46.343Z,17.10
2023-02-08T06:53:33.428Z,18.27
2023-02-08T06:56:20.542Z,17.02
2023-02-08T06:59:07.631Z,17.17
2023-02-08T07:01:54.687Z,17.75
2023-02-08T07:04:41.936Z,17.13
2023-02-08T07:07:29.105Z,16.90
2023-02-08T07:10:16.779Z,16.20
2023-02-08T07:13:04.114Z,17.10
2023-02-08T07:15:51.146Z,16.92
2023-02-08T07:18:38.246Z,16.38
2023-02-08T07:21:25.363Z,17.50
2023-02-08T07:24:12.360Z,18.05
2023-02-08T07:26:59.375Z,17.40
2023-02-08T07:29:46.440Z,16.88
2023-02-08T07:32:34.833Z,15.98
2023-02-08T07:35:22.106Z,16.85
2023-02-08T07:38:10.269Z,17.48
2023-02-08T07:41:08.482Z,16.73
2023-02-08T07:43:55.564Z,16.35
2023-02-08T07:46:42.659Z,16.27
2023-02-08T07:49:30.413Z,17.75
2023-02-08T07:52:17.420Z,16.27
2023-02-08T07:55:04.639Z,18.33
2023-02-08T07:57:51.750Z,17.52
2023-02-08T08:00:39.023Z,17.67
2023-02-08T08:03:26.254Z,17.20
2023-02-08T08:06:13.414Z,18.63
2023-02-08T08:09:00.576Z,18.27
2023-02-08T08:11:47.663Z,17.27
2023-02-08T08:14:34.659Z,16.83
2023-02-08T08:17:21.831Z,17.63
2023-02-08T08:20:11.107Z,18.13
2023-02-08T08:22:58.318Z,13.88
2023-02-08T08:25:45.387Z,16.63
2023-02-08T08:28:32.629Z,16.90
2023-02-08T08:31:22.002Z,16.63
2023-02-08T08:34:09.220Z,13.65
2023-02-08T08:37:01.708Z,17.58
2023-02-08T08:39:49.917Z,16.33
2023-02-08T08:42:39.859Z,16.75
2023-02-08T08:45:27.114Z,16.52
2023-02-08T08:48:14.178Z,17.23
2023-02-08T08:51:01.370Z,16.10
2023-02-08T08:53:48.467Z,15.88
2023-02-08T08:56:35.573Z,17.00
2023-02-08T08:59:22.749Z,17.33
2023-02-08T09:02:13.664Z,16.33
2023-02-08T09:05:00.692Z,17.88
2023-02-08T09:07:47.754Z,17.23
2023-02-08T09:10:34.818Z,18.33
2023-02-08T09:13:22.037Z,15.80
2023-02-08T09:16:13.132Z,13.93
2023-02-08T09:19:08.396Z,15.73
2023-02-08T09:21:55.527Z,14.52
2023-02-08T09:24:42.668Z,14.60
2023-02-08T09:27:29.908Z,13.60
2023-02-08T09:30:17.051Z,13.13
2023-02-08T09:33:04.163Z,12.65
2023-02-08T09:35:51.207Z,20.88
2023-02-08T09:38:38.908Z,13.40
2023-02-08T09:41:44.433Z,13.95
2023-02-08T09:44:40.121Z,13.63
2023-02-08T09:47:34.314Z,14.38
2023-02-08T09:50:44.788Z,14.95
2023-02-08T09:53:40.513Z,14.02
2023-02-08T09:56:36.440Z,14.07
2023-02-08T09:59:29.608Z,14.88
2023-02-08T10:02:30.150Z,14.35
2023-02-08T10:05:22.427Z,13.15
2023-02-08T10:08:11.891Z,13.88
2023-02-08T10:11:01.999Z,13.63
2023-02-08T10:14:07.797Z,15.20
2023-02-08T10:17:21.201Z,13.18
2023-02-08T10:20:22.932Z,13.38
2023-02-08T10:23:21.931Z,13.60
2023-02-08T10:26:40.442Z,13.17
2023-02-08T10:29:35.830Z,11.88
2023-02-08T10:33:12.930Z,11.25
2023-02-08T10:36:00.058Z,11.60
2023-02-08T10:38:51.732Z,12.38
2023-02-08T10:41:39.049Z,11.70
2023-02-08T10:45:24.253Z,10.05
2023-02-08T10:48:20.111Z,9.32
2023-02-08T10:51:12.540Z,9.10
2023-02-08T10:53:59.804Z,9.88
2023-02-08T10:56:58.315Z,9.25
2023-02-08T10:59:56.507Z,10.05
2023-02-08T11:02:44.011Z,9.98
2023-02-08T11:05:38.750Z,9.90
2023-02-08T11:08:27.904Z,11.05
2023-02-08T11:11:15.529Z,11.23
2023-02-08T11:14:16.365Z,12.10
2023-02-08T11:17:03.500Z,11.50
2023-02-08T11:19:50.997Z,11.00
2023-02-08T11:22:38.166Z,11.30
2023-02-08T11:25:38.904Z,11.20
2023-02-08T11:28:31.200Z,10.32
2023-02-08T11:31:21.116Z,10.52
2023-02-08T11:34:11.525Z,10.60
2023-02-08T11:37:02.575Z,9.63
2023-02-08T11:39:58.530Z,10.57
2023-02-08T11:42:47.201Z,10.13
2023-02-08T11:45:36.229Z,9.20
2023-02-08T11:48:51.444Z,9.00
2023-02-08T11:51:39.564Z,9.88
2023-02-08T11:54:41.492Z,9.73
2023-02-08T11:57:28.590Z,8.60
2023-02-08T12:00:27.646Z,8.95
2023-02-08T12:03:18.718Z,9.88
2023-02-08T12:06:17.744Z,10.65
2023-02-08T12:09:40.294Z,9.68
2023-02-08T12:12:46.024Z,10.38
2023-02-08T12:16:06.501Z,10.35
2023-02-08T12:19:12.242Z,10.13
2023-02-08T12:22:04.379Z,10.45
2023-02-08T12:24:59.609Z,9.73
2023-02-08T12:28:12.995Z,10.35
2023-02-08T12:31:41.900Z,10.05
2023-02-08T12:34:43.927Z,10.90
2023-02-08T12:38:13.047Z,11.18
2023-02-08T12:41:12.138Z,11.27
2023-02-08T12:44:09.347Z,10.65
2023-02-08T12:47:30.412Z,9.43
2023-02-08T12:50:41.879Z,9.95
2023-02-08T12:53:39.870Z,11.00
2023-02-08T12:56:40.584Z,10.18
2023-02-08T12:59:40.635Z,11.27
2023-02-08T13:02:59.792Z,9.32
2023-02-08T13:06:01.607Z,10.03
2023-02-08T13:09:04.117Z,10.80
2023-02-08T13:12:06.747Z,10.63
2023-02-08T13:15:28.391Z,10.45
2023-02-08T13:18:35.494Z,9.95
2023-02-08T13:21:32.619Z,9.75
2023-02-08T13:24:27.845Z,9.23
2023-02-08T13:27:21.358Z,10.00
2023-02-08T13:30:19.855Z,9.30
2023-02-08T13:33:28.973Z,9.80
2023-02-08T13:36:33.468Z,8.73
2023-02-08T13:39:46.448Z,8.90
2023-02-08T13:42:49.159Z,8.82
2023-02-08T13:45:45.443Z,9.43
2023-02-08T13:48:48.208Z,8.57
2023-02-08T13:51:35.238Z,8.90
2023-02-08T13:54:23.276Z,9.07
2023-02-08T13:57:55.870Z,8.43
2023-02-08T14:00:55.171Z,8.13
2023-02-08T14:03:42.399Z,8.47
2023-02-08T14:06:31.104Z,7.70
2023-02-08T14:09:24.765Z,7.80
2023-02-08T14:12:49.946Z,6.55
2023-02-08T14:15:40.003Z,6.93
2023-02-08T14:18:28.940Z,6.95
2023-02-08T14:21:36.576Z,7.00
2023-02-08T14:24:26.601Z,6.90
2023-02-08T14:27:41.142Z,8.25
2023-02-08T14:30:31.972Z,6.10
2023-02-08T14:33:25.396Z,6.30
2023-02-08T14:36:30.900Z,5.38
2023-02-08T14:39:26.439Z,5.10
2023-02-08T14:42:14.493Z,4.95
2023-02-08T14:45:02.720Z,4.93
2023-02-08T14:47:55.741Z,4.68
2023-02-08T14:50:52.322Z,4.30
2023-02-08T14:53:42.282Z,4.97
2023-02-08T14:56:33.731Z,5.30
2023-02-08T14:59:25.569Z,5.40
2023-02-08T15:02:20.454Z,5.28
2023-02-08T15:05:10.703Z,6.18
2023-02-08T15:10:46.132Z,7.07
2023-02-08T15:13:35.339Z,7.72
2023-02-08T15:16:48.753Z,7.53
2023-02-08T15:19:43.316Z,6.95
2023-02-08T15:22:34.953Z,7.72
2023-02-08T15:25:26.880Z,7.95
2023-02-08T15:28:22.052Z,7.40
2023-02-08T15:31:14.644Z,7.45
2023-02-08T15:34:04.241Z,7.28
2023-02-08T15:36:54.168Z,7.78
2023-02-08T15:39:41.567Z,7.18
2023-02-08T15:42:33.863Z,7.97
2023-02-08T15:45:26.974Z,8.13
2023-02-08T15:48:14.332Z,8.52
2023-02-08T15:51:02.978Z,8.30
2023-02-08T15:53:55.822Z,9.35
2023-02-08T15:56:50.371Z,9.23
2023-02-08T15:59:40.225Z,9.00
2023-02-08T16:02:31.252Z,9.77
2023-02-08T16:05:22.169Z,9.57
2023-02-08T16:08:22.292Z,9.20
2023-02-08T16:11:21.245Z,9.65
2023-02-08T16:14:08.508Z,9.45
2023-02-08T16:16:58.537Z,9.48
2023-02-08T16:19:51.495Z,9.75
2023-02-08T16:22:39.124Z,10.93
2023-02-08T16:25:46.021Z,9.55
2023-02-08T16:28:43.268Z,9.23
2023-02-08T16:31:33.040Z,10.05
2023-02-08T16:34:22.935Z,8.98
2023-02-08T16:37:25.937Z,10.88
2023-02-08T16:40:38.385Z,9.68
2023-02-08T16:43:25.782Z,9.80
2023-02-08T16:46:19.297Z,10.55
2023-02-08T16:49:10.330Z,11.27
2023-02-08T16:52:00.798Z,11.48
2023-02-08T16:54:47.904Z,20.45
2023-02-08T16:57:46.095Z,12.15
2023-02-08T17:00:35.665Z,11.50
2023-02-08T17:03:22.954Z,12.07
2023-02-08T17:06:31.783Z,10.80
2023-02-08T17:09:19.857Z,11.63
2023-02-08T17:12:21.734Z,10.63
2023-02-08T17:15:10.309Z,10.85
2023-02-08T17:17:58.005Z,12.10
2023-02-08T17:20:45.839Z,10.85
2023-02-08T17:23:34.678Z,10.65
2023-02-08T17:26:48.419Z,11.23
2023-02-08T17:29:35.997Z,11.73
2023-02-08T17:32:23.605Z,11.55
2023-02-08T17:35:15.850Z,11.18
2023-02-08T17:38:04.449Z,11.13
2023-02-08T17:40:51.999Z,11.15
2023-02-08T17:43:39.824Z,10.60
2023-02-08T17:46:30.804Z,11.02
2023-02-08T17:49:18.328Z,10.93
2023-02-08T17:52:07.166Z,11.48
2023-02-08T17:54:55.238Z,11.37
2023-02-08T17:57:44.250Z,11.70
2023-02-08T18:00:33.273Z,11.05
2023-02-08T18:03:22.279Z,12.30
2023-02-08T18:06:10.090Z,11.60
2023-02-08T18:08:58.140Z,11.07
2023-02-08T18:11:46.150Z,10.52
2023-02-08T18:14:34.285Z,10.85
2023-02-08T18:17:22.763Z,10.70
2023-02-08T18:20:16.767Z,11.98
2023-02-08T18:23:04.321Z,10.90
2023-02-08T18:25:52.612Z,11.10
2023-02-08T18:28:43.912Z,10.50
2023-02-08T18:31:34.158Z,10.70
2023-02-08T18:37:10.518Z,10.85
2023-02-08T18:39:58.492Z,10.60
2023-02-08T18:42:46.775Z,11.63
2023-02-08T18:45:34.799Z,11.88
2023-02-08T18:48:22.896Z,12.70
2023-02-08T18:51:11.853Z,11.27
2023-02-08T18:54:00.377Z,11.30
2023-02-08T18:56:52.870Z,10.85
2023-02-08T18:59:42.005Z,10.95
2023-02-08T19:02:31.973Z,10.48
2023-02-08T19:05:20.182Z,10.25
2023-02-08T19:08:08.015Z,10.88
2023-02-08T19:10:55.883Z,11.07
2023-02-08T19:13:44.896Z,10.73
2023-02-08T19:16:37.792Z,11.27
2023-02-08T19:19:26.175Z,10.73
2023-02-08T19:22:17.048Z,9.90
2023-02-08T19:25:04.842Z,10.65
2023-02-08T19:27:53.431Z,10.00
2023-02-08T19:30:41.560Z,10.50
2023-02-08T19:33:30.404Z,9.73
2023-02-08T19:36:22.749Z,11.10
2023-02-08T19:39:15.679Z,11.18
2023-02-08T19:42:03.946Z,10.10
2023-02-08T19:44:52.191Z,9.23
2023-02-08T19:47:50.943Z,10.15
2023-02-08T19:50:39.602Z,7.45
2023-02-08T19:53:29.312Z,9.50
2023-02-08T19:56:22.549Z,9.75
2023-02-08T19:59:20.162Z,9.07
2023-02-08T20:02:11.668Z,9.15
2023-02-08T20:04:59.685Z,9.15
2023-02-08T20:07:47.637Z,10.07
2023-02-08T20:10:42.749Z,9.48
2023-02-08T20:13:32.275Z,8.38
2023-02-08T20:16:22.470Z,8.68
2023-02-08T20:19:12.945Z,8.85
2023-02-08T20:22:01.621Z,8.98
2023-02-08T20:24:51.170Z,8.23
2023-02-08T20:27:38.966Z,6.95
2023-02-08T20:30:27.442Z,9.13
2023-02-08T20:33:16.094Z,9.55
2023-02-08T20:36:10.259Z,8.75
2023-02-08T20:39:01.705Z,8.45
2023-02-08T20:41:49.642Z,8.60
2023-02-08T20:44:37.620Z,8.60
2023-02-08T20:47:27.439Z,8.75
2023-02-08T20:50:27.004Z,8.75
2023-02-08T20:53:15.180Z,8.10
2023-02-08T20:56:19.512Z,8.45
2023-02-08T20:59:16.684Z,8.77
2023-02-08T21:02:08.364Z,8.50
2023-02-08T21:05:00.785Z,9.05
2023-02-08T21:07:49.334Z,9.10
2023-02-08T21:10:37.269Z,8.68
2023-02-08T21:13:24.703Z,9.88
2023-02-08T21:16:14.722Z,8.57
2023-02-08T21:19:02.486Z,8.07
2023-02-08T21:21:53.376Z,8.15
2023-02-08T21:24:40.650Z,7.53
2023-02-08T21:27:27.969Z,8.23
2023-02-08T21:30:15.257Z,7.72
2023-02-08T21:33:05.713Z,8.32
2023-02-08T21:35:54.778Z,8.02
2023-02-08T21:38:43.504Z,7.40
2023-02-08T21:41:33.486Z,7.60
2023-02-08T21:44:21.072Z,6.60
2023-02-08T21:47:08.354Z,8.02
2023-02-08T21:50:14.509Z,7.22
2023-02-08T21:53:29.237Z,6.85
2023-02-08T21:56:16.434Z,7.80
2023-02-08T21:59:03.512Z,7.07
2023-02-08T22:01:50.590Z,8.48
2023-02-08T22:04:57.398Z,7.32
2023-02-08T22:07:50.506Z,6.82
2023-02-08T22:10:39.444Z,7.25
2023-02-08T22:13:28.045Z,7.18
2023-02-08T22:16:17.316Z,7.55
2023-02-08T22:19:06.137Z,7.85
2023-02-08T22:21:53.203Z,8.05
2023-02-08T22:24:40.399Z,7.28
2023-02-08T22:27:27.916Z,8.05
2023-02-08T22:30:18.622Z,8.52
2023-02-08T22:33:05.780Z,8.73
2023-02-08T22:35:56.770Z,7.93
2023-02-08T22:38:52.619Z,8.15
2023-02-08T22:41:39.667Z,7.35
2023-02-08T22:44:26.687Z,7.47
2023-02-08T22:47:14.375Z,8.50
2023-02-08T22:50:01.712Z,8.25
2023-02-08T22:52:48.990Z,8.38
2023-02-08T22:55:36.011Z,8.15
2023-02-08T22:58:24.917Z,7.85
2023-02-08T23:01:17.189Z,8.43
2023-02-08T23:04:04.564Z,9.20
2023-02-08T23:06:51.633Z,7.50
2023-02-08T23:09:38.815Z,8.48
2023-02-08T23:12:26.084Z,8.02
2023-02-08T23:15:13.321Z,8.18
2023-02-08T23:18:00.487Z,8.27
2023-02-08T23:20:47.797Z,8.68
2023-02-08T23:23:34.922Z,8.43
2023-02-08T23:26:22.501Z,8.05
2023-02-08T23:29:09.640Z,8.07
2023-02-08T23:31:56.693Z,8.65
2023-02-08T23:34:44.116Z,8.70
2023-02-08T23:37:34.225Z,8.55
2023-02-08T23:40:21.669Z,7.78
2023-02-08T23:43:09.077Z,8.52
2023-02-08T23:45:56.451Z,8.75
2023-02-08T23:48:44.936Z,7.60
2023-02-08T23:51:25.425Z,7.68
2023-02-08T23:54:03.679Z,7.70
2023-02-08T23:56:43.670Z,6.78
2023-02-08T23:59:23.694Z,8.40
